createdAt,value
2018-01-06T00:01:04.576Z,97310.31
2018-01-06T00:03:32.399Z,97315.70
2018-01-06T00:05:59.853Z,97314.39
2018-01-06T00:08:27.554Z,97319.52
2018-01-06T00:10:55.537Z,97315.48
2018-01-06T00:13:23.248Z,97314.69
2018-01-06T00:15:51.171Z,97319.38
2018-01-06T00:18:18.841Z,97319.12
2018-01-06T00:20:46.644Z,97314.44
2018-01-06T00:23:14.777Z,97318.42
2018-01-06T00:25:42.424Z,97313.85
2018-01-06T00:28:10.125Z,97311.70
2018-01-06T00:30:38.080Z,97317.83
2018-01-06T00:33:05.553Z,97318.67
2018-01-06T00:35:33.047Z,97319.66
2018-01-06T00:38:00.781Z,97317.97
2018-01-06T00:40:28.248Z,97317.72
2018-01-06T00:42:55.711Z,97329.64
2018-01-06T00:45:23.732Z,97335.63
2018-01-06T00:47:52.014Z,97337.25
2018-01-06T00:50:19.635Z,97343.05
2018-01-06T00:52:47.762Z,97348.64
2018-01-06T00:55:15.435Z,97358.58
2018-01-06T00:57:43.211Z,97363.54
2018-01-06T01:00:11.278Z,97367.69
2018-01-06T01:02:38.738Z,97378.46
2018-01-06T01:05:08.454Z,97377.82
2018-01-06T01:07:36.446Z,97382.31
2018-01-06T01:10:03.929Z,97385.19
2018-01-06T01:12:31.408Z,97390.30
2018-01-06T01:14:59.768Z,97385.55
2018-01-06T01:17:27.270Z,97389.39
2018-01-06T01:19:54.739Z,97386.94
2018-01-06T01:22:22.448Z,97392.73
2018-01-06T01:24:49.918Z,97397.36
2018-01-06T01:27:17.367Z,97403.57
2018-01-06T01:29:45.384Z,97395.17
2018-01-06T01:32:13.425Z,97393.75
2018-01-06T01:34:40.877Z,97397.31
2018-01-06T01:37:09.003Z,97399.62
2018-01-06T01:39:37.151Z,97416.02
2018-01-06T01:42:04.611Z,97411.27
2018-01-06T01:44:32.306Z,97418.65
2018-01-06T01:47:02.531Z,97412.63
2018-01-06T01:49:30.000Z,97409.92
2018-01-06T01:51:57.456Z,97409.41
2018-01-06T01:54:25.212Z,97412.89
2018-01-06T01:56:52.670Z,97415.36
2018-01-06T01:59:20.118Z,97417.23
2018-01-06T02:01:47.753Z,97418.27
2018-01-06T02:04:15.210Z,97421.34
2018-01-06T02:06:42.674Z,97419.38
2018-01-06T02:09:10.598Z,97420.64
2018-01-06T02:11:38.060Z,97418.76
2018-01-06T02:14:05.521Z,97421.16
2018-01-06T02:16:33.588Z,97432.27
2018-01-06T02:19:01.051Z,97427.85
2018-01-06T02:21:28.502Z,97434.92
2018-01-06T02:23:56.585Z,97431.68
2018-01-06T02:26:24.041Z,97438.22
2018-01-06T02:28:51.530Z,97440.55
2018-01-06T02:31:19.575Z,97438.82
2018-01-06T02:33:47.040Z,97436.25
2018-01-06T02:36:14.508Z,97429.06
2018-01-06T02:38:42.573Z,97429.11
2018-01-06T02:41:10.030Z,97430.84
2018-01-06T02:43:37.492Z,97423.42
2018-01-06T02:46:05.262Z,97426.62
2018-01-06T02:48:32.717Z,97426.04
2018-01-06T02:51:00.235Z,97427.31
2018-01-06T02:53:27.949Z,97434.46
2018-01-06T02:55:55.409Z,97431.13
2018-01-06T02:58:22.874Z,97415.55
2018-01-06T03:00:50.629Z,97419.91
2018-01-06T03:03:18.083Z,97418.38
2018-01-06T03:05:45.538Z,97418.75
2018-01-06T03:08:13.324Z,97416.47
2018-01-06T03:10:40.785Z,97422.82
2018-01-06T03:13:08.252Z,97421.36
2018-01-06T03:15:35.988Z,97426.41
2018-01-06T03:18:03.441Z,97418.85
2018-01-06T03:20:30.908Z,97418.97
2018-01-06T03:22:59.302Z,97417.55
2018-01-06T03:25:26.770Z,97410.88
2018-01-06T03:27:54.228Z,97416.73
2018-01-06T03:30:22.007Z,97416.58
2018-01-06T03:32:49.470Z,97420.78
2018-01-06T03:35:16.931Z,97412.56
2018-01-06T03:37:44.685Z,97422.14
2018-01-06T03:40:12.144Z,97415.45
2018-01-06T03:42:39.598Z,97416.94
2018-01-06T03:45:07.373Z,97412.34
2018-01-06T03:47:34.829Z,97419.41
2018-01-06T03:50:02.293Z,97410.95
2018-01-06T03:52:30.062Z,97414.63
2018-01-06T03:54:58.910Z,97410.07
2018-01-06T03:57:26.373Z,97408.46
2018-01-06T03:59:54.281Z,97412.00
2018-01-06T04:02:21.740Z,97414.11
2018-01-06T04:04:49.188Z,97426.71
2018-01-06T04:07:17.281Z,97428.59
2018-01-06T04:09:44.741Z,97429.75
2018-01-06T04:12:12.200Z,97436.44
2018-01-06T04:14:39.966Z,97435.55
2018-01-06T04:17:07.425Z,97444.13
2018-01-06T04:19:34.886Z,97445.47
2018-01-06T04:22:02.673Z,97450.33
2018-01-06T04:24:30.135Z,97455.27
2018-01-06T04:26:57.588Z,97456.37
2018-01-06T04:29:25.327Z,97465.25
2018-01-06T04:31:52.784Z,97459.60
2018-01-06T04:34:20.235Z,97468.81
2018-01-06T04:36:47.953Z,97466.20
2018-01-06T04:39:15.405Z,97467.30
2018-01-06T04:41:42.858Z,97473.06
2018-01-06T04:44:10.662Z,97472.31
2018-01-06T04:46:38.118Z,97476.49
2018-01-06T04:49:05.571Z,97473.81
2018-01-06T04:51:34.017Z,97475.60
2018-01-06T04:54:01.476Z,97478.25
2018-01-06T04:56:28.932Z,97477.05
2018-01-06T04:58:56.702Z,97486.22
2018-01-06T05:01:24.165Z,97489.98
2018-01-06T05:03:51.624Z,97495.11
2018-01-06T05:06:19.690Z,97494.44
2018-01-06T05:08:47.161Z,97504.15
2018-01-06T05:11:14.625Z,97504.80
2018-01-06T05:13:42.441Z,97504.66
2018-01-06T05:16:09.887Z,97506.66
2018-01-06T05:18:37.344Z,97511.11
2018-01-06T05:21:05.068Z,97514.22
2018-01-06T05:23:32.525Z,97523.84
2018-01-06T05:25:59.989Z,97522.06
2018-01-06T05:28:27.673Z,97525.16
2018-01-06T05:30:55.128Z,97531.20
2018-01-06T05:33:22.584Z,97528.94
2018-01-06T05:35:50.434Z,97522.38
2018-01-06T05:38:17.888Z,97531.43
2018-01-06T05:40:45.338Z,97529.52
2018-01-06T05:43:13.142Z,97530.87
2018-01-06T05:45:40.601Z,97536.59
2018-01-06T05:48:08.063Z,97543.10
2018-01-06T05:50:35.807Z,97543.00
2018-01-06T05:53:03.979Z,97545.47
2018-01-06T05:55:31.443Z,97545.78
2018-01-06T05:57:59.421Z,97552.96
2018-01-06T06:00:26.887Z,97546.77
2018-01-06T06:02:54.350Z,97545.43
2018-01-06T06:05:22.112Z,97549.69
2018-01-06T06:07:49.571Z,97547.02
2018-01-06T06:10:17.034Z,97553.98
2018-01-06T06:12:44.921Z,97553.59
2018-01-06T06:15:12.376Z,97552.67
2018-01-06T06:17:39.837Z,97550.32
2018-01-06T06:20:08.421Z,97554.51
2018-01-06T06:22:35.879Z,97548.07
2018-01-06T06:25:03.338Z,97553.77
2018-01-06T06:27:30.973Z,97552.01
2018-01-06T06:29:58.425Z,97561.47
2018-01-06T06:32:25.869Z,97559.66
2018-01-06T06:34:53.541Z,97553.39
2018-01-06T06:37:20.997Z,97555.02
2018-01-06T06:39:48.444Z,97539.86
2018-01-06T06:42:16.220Z,97543.58
2018-01-06T06:44:43.699Z,97540.20
2018-01-06T06:47:11.159Z,97543.84
2018-01-06T06:49:39.158Z,97551.33
2018-01-06T06:52:06.615Z,97550.34
2018-01-06T06:54:34.501Z,97552.49
2018-01-06T06:57:02.768Z,97548.23
2018-01-06T06:59:30.225Z,97548.32
2018-01-06T07:01:57.677Z,97545.75
2018-01-06T07:04:25.449Z,97542.80
2018-01-06T07:06:52.898Z,97540.00
2018-01-06T07:09:20.341Z,97546.07
2018-01-06T07:11:48.165Z,97539.95
2018-01-06T07:14:15.624Z,97542.06
2018-01-06T07:16:43.086Z,97549.34
2018-01-06T07:19:10.830Z,97548.44
2018-01-06T07:21:38.289Z,97548.02
2018-01-06T07:24:05.773Z,97547.30
2018-01-06T07:26:33.816Z,97551.78
2018-01-06T07:29:01.268Z,97552.79
2018-01-06T07:31:28.717Z,97550.31
2018-01-06T07:33:56.502Z,97550.38
2018-01-06T07:36:23.953Z,97551.20
2018-01-06T07:38:51.413Z,97552.69
2018-01-06T07:41:19.226Z,97549.86
2018-01-06T07:43:46.681Z,97551.58
2018-01-06T07:46:14.136Z,97552.33
2018-01-06T07:48:41.925Z,97559.70
2018-01-06T07:51:09.349Z,97558.67
2018-01-06T07:53:36.813Z,97554.87
2018-01-06T07:56:05.178Z,97562.08
2018-01-06T07:58:32.644Z,97566.75
2018-01-06T08:01:00.114Z,97565.08
2018-01-06T08:03:28.183Z,97567.83
2018-01-06T08:05:55.639Z,97568.58
2018-01-06T08:08:23.181Z,97567.49
2018-01-06T08:10:51.179Z,97567.06
2018-01-06T08:13:18.637Z,97572.77
2018-01-06T08:15:46.091Z,97567.66
2018-01-06T08:18:13.853Z,97566.25
2018-01-06T08:20:41.306Z,97561.41
2018-01-06T08:23:08.782Z,97572.14
2018-01-06T08:25:36.552Z,97574.70
2018-01-06T08:28:04.018Z,97574.27
2018-01-06T08:30:31.480Z,97562.80
2018-01-06T08:32:59.415Z,97568.38
2018-01-06T08:35:26.876Z,97565.34
2018-01-06T08:37:54.331Z,97570.34
2018-01-06T08:40:22.239Z,97563.88
2018-01-06T08:42:49.758Z,97565.52
2018-01-06T08:45:17.208Z,97566.44
2018-01-06T08:47:45.224Z,97565.87
2018-01-06T08:50:12.697Z,97562.91
2018-01-06T08:52:40.159Z,97561.73
2018-01-06T08:55:07.886Z,97558.39
2018-01-06T08:57:38.805Z,97557.97
2018-01-06T09:00:06.260Z,97547.89
2018-01-06T09:02:33.981Z,97554.14
2018-01-06T09:05:01.450Z,97545.50
2018-01-06T09:07:28.909Z,97541.97
2018-01-06T09:09:56.660Z,97532.77
2018-01-06T09:12:24.136Z,97532.47
2018-01-06T09:14:51.593Z,97529.50
2018-01-06T09:17:19.346Z,97527.59
2018-01-06T09:19:46.840Z,97529.50
2018-01-06T09:22:14.308Z,97526.06
2018-01-06T09:24:42.040Z,97522.75
2018-01-06T09:27:09.494Z,97524.56
2018-01-06T09:29:36.948Z,97521.56
2018-01-06T09:32:04.721Z,97522.20
2018-01-06T09:34:32.189Z,97513.55
2018-01-06T09:36:59.658Z,97513.39
2018-01-06T09:39:27.400Z,97515.59
2018-01-06T09:41:54.860Z,97516.28
2018-01-06T09:44:22.318Z,97509.98
2018-01-06T09:46:50.098Z,97508.52
2018-01-06T09:49:17.568Z,97510.03
2018-01-06T09:51:45.030Z,97507.84
2018-01-06T09:54:12.785Z,97506.41
2018-01-06T09:56:40.262Z,97504.22
2018-01-06T09:59:08.080Z,97498.02
2018-01-06T10:01:36.089Z,97494.05
2018-01-06T10:04:03.545Z,97492.19
2018-01-06T10:06:31.009Z,97489.19
2018-01-06T10:08:59.086Z,97486.91
2018-01-06T10:11:26.541Z,97482.52
2018-01-06T10:13:54.006Z,97480.61
2018-01-06T10:16:21.770Z,97476.92
2018-01-06T10:18:49.238Z,97477.42
2018-01-06T10:21:16.699Z,97467.48
2018-01-06T10:23:44.761Z,97465.31
2018-01-06T10:26:12.218Z,97462.87
2018-01-06T10:28:39.686Z,97465.17
2018-01-06T10:31:07.764Z,97458.89
2018-01-06T10:33:35.209Z,97459.70
2018-01-06T10:36:02.669Z,97452.66
2018-01-06T10:38:30.754Z,97444.09
2018-01-06T10:40:58.224Z,97446.34
2018-01-06T10:43:25.682Z,97446.13
2018-01-06T10:45:54.056Z,97448.14
2018-01-06T10:48:21.518Z,97443.50
2018-01-06T10:50:48.978Z,97443.92
2018-01-06T10:53:16.741Z,97433.83
2018-01-06T10:55:44.728Z,97431.69
2018-01-06T10:58:12.190Z,97429.34
2018-01-06T11:00:47.104Z,97428.85
2018-01-06T11:03:14.566Z,97420.76
2018-01-06T11:05:42.073Z,97416.80
2018-01-06T11:08:09.801Z,97419.29
2018-01-06T11:10:37.260Z,97414.98
2018-01-06T11:13:04.725Z,97404.06
2018-01-06T11:15:32.490Z,97409.02
2018-01-06T11:17:59.953Z,97405.30
2018-01-06T11:20:27.405Z,97395.59
2018-01-06T11:22:55.173Z,97394.53
2018-01-06T11:25:22.635Z,97387.98
2018-01-06T11:27:50.091Z,97387.73
2018-01-06T11:30:17.853Z,97374.34
2018-01-06T11:32:45.305Z,97373.50
2018-01-06T11:35:12.753Z,97376.53
2018-01-06T11:37:40.540Z,97377.72
2018-01-06T11:40:08.004Z,97368.03
2018-01-06T11:42:35.457Z,97366.94
2018-01-06T11:45:03.528Z,97360.09
2018-01-06T11:47:31.004Z,97366.33
2018-01-06T11:49:58.457Z,97361.91
2018-01-06T11:52:26.172Z,97359.70
2018-01-06T11:54:53.637Z,97356.63
2018-01-06T11:57:21.093Z,97360.70
2018-01-06T11:59:49.217Z,97356.25
2018-01-06T12:02:17.057Z,97359.69
2018-01-06T12:04:44.510Z,97356.13
2018-01-06T12:07:12.514Z,97359.83
2018-01-06T12:09:39.973Z,97355.50
2018-01-06T12:12:07.427Z,97352.33
2018-01-06T12:14:35.452Z,97357.09
2018-01-06T12:17:02.903Z,97353.91
2018-01-06T12:19:30.362Z,97351.42
2018-01-06T12:21:58.233Z,97355.63
2018-01-06T12:24:25.689Z,97360.66
2018-01-06T12:26:53.145Z,97363.91
2018-01-06T12:29:20.960Z,97365.97
2018-01-06T12:31:48.417Z,97363.02
2018-01-06T12:34:15.865Z,97371.48
2018-01-06T12:43:27.544Z,97369.31
2018-01-06T12:45:54.985Z,97366.75
2018-01-06T12:48:22.433Z,97364.86
2018-01-06T12:50:50.244Z,97363.77
2018-01-06T12:53:17.696Z,97369.37
2018-01-06T12:55:45.137Z,97375.38
2018-01-06T12:58:12.905Z,97375.20
2018-01-06T13:00:40.366Z,97373.51
2018-01-06T13:03:08.533Z,97373.16
2018-01-06T13:05:36.231Z,97372.17
2018-01-06T13:08:03.690Z,97376.98
2018-01-06T13:10:31.149Z,97377.95
2018-01-06T13:12:58.912Z,97374.92
2018-01-06T13:15:26.360Z,97377.11
2018-01-06T13:17:53.808Z,97382.91
2018-01-06T13:20:21.473Z,97377.30
2018-01-06T13:22:48.916Z,97383.04
2018-01-06T13:25:16.364Z,97382.05
2018-01-06T13:27:44.301Z,97381.14
2018-01-06T13:30:11.752Z,97389.78
2018-01-06T13:32:39.195Z,97393.13
2018-01-06T13:35:06.962Z,97398.23
2018-01-06T13:37:34.411Z,97403.25
2018-01-06T13:40:01.857Z,97403.86
2018-01-06T13:42:29.597Z,97398.87
2018-01-06T13:44:57.050Z,97400.60
2018-01-06T13:47:24.501Z,97405.28
2018-01-06T13:49:53.276Z,97402.64
2018-01-06T13:52:20.741Z,97410.13
2018-01-06T13:54:48.209Z,97411.48
2018-01-06T13:57:15.961Z,97418.64
2018-01-06T13:59:43.473Z,97424.55
2018-01-06T14:02:10.925Z,97417.16
2018-01-06T14:04:39.573Z,97421.66
2018-01-06T14:07:07.033Z,97426.24
2018-01-06T14:09:34.491Z,97426.00
2018-01-06T14:12:02.286Z,97426.42
2018-01-06T14:14:29.750Z,97426.48
2018-01-06T14:16:57.198Z,97439.75
2018-01-06T14:19:24.954Z,97435.27
2018-01-06T14:21:52.412Z,97431.95
2018-01-06T14:24:19.867Z,97432.93
2018-01-06T14:26:48.241Z,97434.94
2018-01-06T14:29:15.694Z,97424.15
2018-01-06T14:31:43.140Z,97425.25
2018-01-06T14:34:10.937Z,97428.92
2018-01-06T14:36:38.395Z,97433.56
2018-01-06T14:39:05.857Z,97438.48
2018-01-06T14:41:33.622Z,97441.67
2018-01-06T14:44:01.082Z,97446.02
2018-01-06T14:46:28.542Z,97448.63
2018-01-06T14:48:56.309Z,97454.45
2018-01-06T14:51:23.764Z,97452.93
2018-01-06T14:53:51.462Z,97459.97
2018-01-06T14:56:19.926Z,97466.53
2018-01-06T14:58:47.601Z,97461.52
2018-01-06T15:01:15.433Z,97457.74
2018-01-06T15:03:43.216Z,97460.05
2018-01-06T15:06:11.682Z,97469.98
2018-01-06T15:08:39.155Z,97470.51
2018-01-06T15:11:07.144Z,97473.52
2018-01-06T15:13:34.596Z,97476.45
2018-01-06T15:16:02.060Z,97476.41
2018-01-06T15:18:29.820Z,97479.12
2018-01-06T15:20:57.326Z,97475.63
2018-01-06T15:23:24.794Z,97480.45
2018-01-06T15:25:53.133Z,97465.65
2018-01-06T15:28:20.585Z,97481.91
2018-01-06T15:30:48.043Z,97487.26
2018-01-06T15:33:15.812Z,97486.23
2018-01-06T15:35:43.264Z,97489.36
2018-01-06T15:38:10.743Z,97486.89
2018-01-06T15:40:38.496Z,97495.17
2018-01-06T15:43:06.137Z,97497.53
2018-01-06T15:45:33.601Z,97496.44
2018-01-06T15:48:01.557Z,97498.30
2018-01-06T15:50:29.027Z,97499.16
2018-01-06T15:52:56.505Z,97504.09
2018-01-06T15:55:24.142Z,97502.45
2018-01-06T15:57:51.645Z,97507.38
2018-01-06T16:00:19.117Z,97513.92
2018-01-06T16:02:47.172Z,97507.38
2018-01-06T16:05:14.653Z,97511.09
2018-01-06T16:07:42.790Z,97511.05
2018-01-06T16:10:10.514Z,97511.39
2018-01-06T16:12:37.979Z,97520.07
2018-01-06T16:15:05.443Z,97525.25
2018-01-06T16:17:33.461Z,97518.17
2018-01-06T16:20:00.941Z,97525.16
2018-01-06T16:22:28.391Z,97532.06
2018-01-06T16:24:56.459Z,97531.64
2018-01-06T16:27:23.914Z,97537.55
2018-01-06T16:29:51.637Z,97534.80
2018-01-06T16:32:19.457Z,97547.25
2018-01-06T16:34:46.937Z,97553.70
2018-01-06T16:37:14.396Z,97554.20
2018-01-06T16:39:42.338Z,97557.41
2018-01-06T16:42:09.785Z,97567.47
2018-01-06T16:44:37.240Z,97571.78
2018-01-06T16:47:04.910Z,97577.13
2018-01-06T16:49:32.372Z,97570.98
2018-01-06T16:51:59.839Z,97576.44
2018-01-06T16:54:27.834Z,97577.59
2018-01-06T16:56:55.297Z,97580.73
2018-01-06T16:59:22.759Z,97579.58
2018-01-06T17:01:50.581Z,97590.16
2018-01-06T17:04:18.036Z,97603.62
2018-01-06T17:06:45.502Z,97603.06
2018-01-06T17:09:13.836Z,97606.70
2018-01-06T17:11:41.382Z,97611.62
2018-01-06T17:14:08.839Z,97621.32
2018-01-06T17:16:36.801Z,97620.52
2018-01-06T17:19:04.257Z,97628.25
2018-01-06T17:21:31.986Z,97635.64
2018-01-06T17:23:59.811Z,97646.69
2018-01-06T17:26:27.351Z,97646.30
2018-01-06T17:28:54.801Z,97645.52
2018-01-06T17:31:22.637Z,97657.69
2018-01-06T17:33:50.194Z,97659.64
2018-01-06T17:36:17.667Z,97662.06
2018-01-06T17:38:46.714Z,97667.41
2018-01-06T17:41:14.187Z,97677.86
2018-01-06T17:43:41.652Z,97688.46
2018-01-06T17:46:09.398Z,97686.53
2018-01-06T17:48:36.856Z,97682.63
2018-01-06T17:51:04.330Z,97693.66
2018-01-06T17:53:32.094Z,97698.63
2018-01-06T17:55:59.550Z,97703.42
2018-01-06T17:58:27.030Z,97704.52
2018-01-06T18:00:55.372Z,97702.47
2018-01-06T18:03:22.838Z,97704.61
2018-01-06T18:05:50.300Z,97712.50
2018-01-06T18:08:18.076Z,97712.27
2018-01-06T18:10:46.225Z,97711.03
2018-01-06T18:13:13.707Z,97715.88
2018-01-06T18:15:41.664Z,97712.97
2018-01-06T18:18:09.122Z,97714.75
2018-01-06T18:20:36.583Z,97727.62
2018-01-06T18:23:04.369Z,97736.04
2018-01-06T18:25:31.826Z,97738.03
2018-01-06T18:27:59.287Z,97733.78
2018-01-06T18:30:27.060Z,97741.61
2018-01-06T18:32:54.521Z,97737.56
2018-01-06T18:35:21.997Z,97749.47
2018-01-06T18:37:49.810Z,97753.55
2018-01-06T18:40:17.271Z,97752.98
2018-01-06T18:42:44.732Z,97752.58
2018-01-06T18:45:12.709Z,97755.87
2018-01-06T18:47:40.173Z,97756.53
2018-01-06T18:50:07.633Z,97752.27
2018-01-06T18:52:35.429Z,97759.14
2018-01-06T18:55:02.890Z,97760.72
2018-01-06T18:57:30.364Z,97761.08
2018-01-06T18:59:58.116Z,97760.92
2018-01-06T19:02:25.577Z,97760.80
2018-01-06T19:04:53.051Z,97774.61
2018-01-06T19:07:20.808Z,97766.41
2018-01-06T19:09:48.289Z,97760.97
2018-01-06T19:12:16.420Z,97767.42
2018-01-06T19:14:44.413Z,97770.70
2018-01-06T19:17:11.865Z,97766.37
2018-01-06T19:19:40.297Z,97764.75
2018-01-06T19:22:08.083Z,97768.15
2018-01-06T19:24:35.534Z,97771.52
2018-01-06T19:27:03.197Z,97780.05
2018-01-06T19:29:31.022Z,97789.35
2018-01-06T19:31:58.483Z,97787.19
2018-01-06T19:34:26.161Z,97788.70
2018-01-06T19:36:54.625Z,97794.20
2018-01-06T19:39:22.476Z,97789.89
2018-01-06T19:41:49.934Z,97801.05
2018-01-06T19:44:18.222Z,97799.61
2018-01-06T19:46:46.470Z,97804.16
2018-01-06T19:49:15.040Z,97803.43
2018-01-06T19:51:43.367Z,97810.72
2018-01-06T19:54:10.892Z,97808.63
2018-01-06T19:56:38.382Z,97812.23
2018-01-06T19:59:06.385Z,97823.09
2018-01-06T20:01:34.676Z,97818.38
2018-01-06T20:04:02.746Z,97822.28
2018-01-06T20:06:30.582Z,97824.75
2018-01-06T20:08:58.062Z,97828.73
2018-01-06T20:11:25.997Z,97835.20
2018-01-06T20:13:56.041Z,97835.66
2018-01-06T20:16:24.759Z,97844.64
2018-01-06T20:18:52.242Z,97844.08
2018-01-06T20:21:20.288Z,97852.53
2018-01-06T20:23:48.216Z,97860.38
2018-01-06T20:26:16.156Z,97863.21
2018-01-06T20:28:44.545Z,97860.45
2018-01-06T20:31:12.001Z,97855.92
2018-01-06T20:33:39.467Z,97858.87
2018-01-06T20:36:08.094Z,97860.14
2018-01-06T20:38:35.604Z,97862.84
2018-01-06T20:41:03.341Z,97858.77
2018-01-06T20:43:31.104Z,97862.88
2018-01-06T20:45:58.564Z,97868.09
2018-01-06T20:48:26.106Z,97866.98
2018-01-06T20:50:54.100Z,97868.70
2018-01-06T20:53:21.577Z,97869.94
2018-01-06T20:55:49.033Z,97869.20
2018-01-06T20:58:17.687Z,97872.65
2018-01-06T21:00:45.846Z,97880.09
2018-01-06T21:03:13.308Z,97878.17
2018-01-06T21:05:41.616Z,97874.63
2018-01-06T21:08:09.161Z,97878.19
2018-01-06T21:10:37.500Z,97886.16
2018-01-06T21:13:05.222Z,97889.21
2018-01-06T21:15:33.695Z,97890.56
2018-01-06T21:18:01.149Z,97885.80
2018-01-06T21:20:29.150Z,97894.80
2018-01-06T21:22:56.604Z,97884.89
2018-01-06T21:25:25.022Z,97893.81
2018-01-06T21:27:53.082Z,97892.19
2018-01-06T21:30:20.545Z,97894.41
2018-01-06T21:32:48.004Z,97902.50
2018-01-06T21:35:16.041Z,97896.84
2018-01-06T21:37:43.590Z,97900.84
2018-01-06T21:40:11.071Z,97909.73
2018-01-06T21:42:39.090Z,97915.31
2018-01-06T21:45:06.594Z,97918.30
2018-01-06T21:47:34.114Z,97917.65
2018-01-06T21:50:01.894Z,97923.88
2018-01-06T21:52:29.353Z,97918.96
2018-01-06T21:54:56.822Z,97921.83
2018-01-06T21:57:24.426Z,97928.64
2018-01-06T21:59:51.916Z,97929.55
2018-01-06T22:02:19.409Z,97929.91
2018-01-06T22:04:47.401Z,97934.02
2018-01-06T22:07:14.944Z,97931.31
2018-01-06T22:09:42.396Z,97933.78
2018-01-06T22:12:10.713Z,97942.13
2018-01-06T22:14:38.187Z,97948.97
2018-01-06T22:17:06.025Z,97947.19
2018-01-06T22:19:33.904Z,97952.51
2018-01-06T22:22:01.908Z,97949.09
2018-01-06T22:24:29.937Z,97959.50
2018-01-06T22:26:57.933Z,97958.43
2018-01-06T22:29:25.721Z,97960.73
2018-01-06T22:31:53.725Z,97961.31
2018-01-06T22:34:21.549Z,97971.30
2018-01-06T22:36:49.097Z,97970.58
2018-01-06T22:39:16.644Z,97970.94
2018-01-06T22:41:44.838Z,97977.09
2018-01-06T22:44:12.290Z,97974.69
2018-01-06T22:46:39.754Z,97976.59
2018-01-06T22:49:08.149Z,97975.23
2018-01-06T22:51:35.822Z,97973.94
2018-01-06T22:54:03.989Z,97972.13
2018-01-06T22:56:32.001Z,97975.16
2018-01-06T22:58:59.720Z,97971.80
2018-01-06T23:01:27.205Z,97974.81
2018-01-06T23:03:55.377Z,97974.88
2018-01-06T23:06:23.119Z,97973.16
2018-01-06T23:08:50.765Z,97972.41
2018-01-06T23:11:19.321Z,97970.84
2018-01-06T23:13:47.094Z,97979.22
2018-01-06T23:16:14.576Z,97980.23
2018-01-06T23:18:43.069Z,97973.80
2018-01-06T23:21:10.736Z,97978.68
2018-01-06T23:23:38.189Z,97985.34
2018-01-06T23:26:06.190Z,97990.59
2018-01-06T23:28:33.654Z,97991.88
2018-01-06T23:31:01.125Z,97991.65
2018-01-06T23:33:28.885Z,98000.17
2018-01-06T23:35:56.345Z,98005.30
2018-01-06T23:38:23.805Z,97997.65
2018-01-06T23:40:51.569Z,97998.53
2018-01-06T23:43:19.031Z,98004.09
2018-01-06T23:45:46.499Z,98006.28
2018-01-06T23:48:14.237Z,98010.41
2018-01-06T23:50:41.700Z,98014.91
2018-01-06T23:53:09.161Z,98018.22
2018-01-06T23:55:37.246Z,98024.96
2018-01-06T23:58:04.712Z,98018.55
